Time;durP1;ratioP1;P1;durP2;ratioP2;P2;SDS_P1;SDS_P2;PMS_P1;PMS_P2;Temp;Humidity;BMP_temperature;BMP_pressure;BME280_temperature;BME280_humidity;BME280_pressure;Samples;Min_cycle;Max_cycle;Signal;HPM_P1;HPM_P2
2021/06/02 00:02:13;;;;;;;8.27;6.03;;;22.90;57.30;;;;;;5097013;28;20423;-77
2021/06/02 00:04:44;;;;;;;9.95;5.90;;;22.90;56.90;;;;;;5096964;28;20028;-77
2021/06/02 00:07:11;;;;;;;9.75;5.72;;;22.90;56.50;;;;;;5096970;28;20035;-77
2021/06/02 00:09:38;;;;;;;8.32;6.00;;;22.80;56.20;;;;;;5096944;28;20032;-78
2021/06/02 00:12:08;;;;;;;9.60;5.82;;;22.80;56.00;;;;;;5097045;28;20028;-77
2021/06/02 00:14:34;;;;;;;8.73;5.88;;;22.80;55.70;;;;;;5097097;28;20051;-77
2021/06/02 00:17:00;;;;;;;10.40;6.35;;;22.80;56.20;;;;;;5096849;28;20025;-78
2021/06/02 00:19:27;;;;;;;6.50;5.70;;;22.70;57.30;;;;;;5096935;28;20441;-78
2021/06/02 00:21:54;;;;;;;8.98;5.95;;;22.80;56.50;;;;;;5096929;28;20039;-77
2021/06/02 00:24:20;;;;;;;9.10;6.63;;;22.70;55.90;;;;;;5081583;28;20051;-77
2021/06/02 00:26:50;;;;;;;8.95;6.20;;;22.70;57.10;;;;;;5096874;28;20024;-77
2021/06/02 00:29:16;;;;;;;8.63;6.18;;;22.70;57.00;;;;;;5096738;28;20024;-77
2021/06/02 00:31:47;;;;;;;9.70;6.82;;;22.70;57.90;;;;;;5096748;28;20024;-78
2021/06/02 00:34:13;;;;;;;9.45;6.68;;;22.70;58.40;;;;;;5096705;28;20048;-78
2021/06/02 00:36:43;;;;;;;9.10;6.40;;;22.70;57.90;;;;;;5096486;28;20544;-77
2021/06/02 00:39:10;;;;;;;8.90;6.25;;;22.60;57.40;;;;;;5096869;28;20035;-78
2021/06/02 00:41:37;;;;;;;8.13;6.18;;;22.60;58.00;;;;;;5096793;28;20050;-77
2021/06/02 00:44:08;;;;;;;8.57;6.35;;;22.60;56.90;;;;;;5096985;28;20031;-78
2021/06/02 00:46:37;;;;;;;10.70;6.57;;;22.60;56.70;;;;;;5096490;28;20136;-78
2021/06/02 00:49:06;;;;;;;8.45;6.47;;;22.60;57.20;;;;;;5096717;28;20020;-77
2021/06/02 00:51:32;;;;;;;8.80;6.07;;;22.50;57.70;;;;;;5096568;28;20016;-78
2021/06/02 00:53:59;;;;;;;11.00;6.18;;;22.50;56.70;;;;;;5096729;28;20025;-78
2021/06/02 00:56:30;;;;;;;9.63;6.20;;;22.50;57.20;;;;;;5095199;28;20035;-78
2021/06/02 00:58:59;;;;;;;9.65;5.28;;;22.50;56.40;;;;;;5086359;28;20376;-78
2021/06/02 01:01:26;;;;;;;9.35;5.72;;;22.50;56.30;;;;;;5097436;28;20386;-78
2021/06/02 01:03:56;;;;;;;6.90;5.43;;;22.40;56.30;;;;;;5100557;28;20032;-77
2021/06/02 01:06:25;;;;;;;8.73;5.68;;;22.40;55.90;;;;;;5099974;28;20111;-77
2021/06/02 01:08:53;;;;;;;8.98;5.80;;;22.40;56.20;;;;;;5099810;28;20016;-77
2021/06/02 01:11:21;;;;;;;8.32;6.20;;;22.40;56.50;;;;;;5086686;28;20028;-78
2021/06/02 01:13:47;;;;;;;7.70;5.35;;;22.30;56.30;;;;;;5099836;28;20088;-77
2021/06/02 01:16:13;;;;;;;9.82;5.80;;;22.30;56.10;;;;;;5099993;28;20024;-78
2021/06/02 01:18:40;;;;;;;8.63;5.88;;;22.30;56.60;;;;;;5099775;28;20070;-78
2021/06/02 01:21:11;;;;;;;7.90;5.45;;;22.20;56.10;;;;;;5100092;28;20070;-77
2021/06/02 01:23:37;;;;;;;8.75;5.47;;;22.20;55.80;;;;;;5087177;28;20032;-77
2021/06/02 01:26:03;;;;;;;7.15;5.57;;;22.20;56.40;;;;;;5098585;28;20124;-78
2021/06/02 01:28:29;;;;;;;8.40;6.00;;;22.20;55.90;;;;;;5099788;28;20012;-78
2021/06/02 01:30:55;;;;;;;9.85;5.95;;;22.20;56.70;;;;;;5099553;28;20390;-78
2021/06/02 01:34:04;;;;;;;7.75;5.78;;;22.20;56.80;;;;;;5099685;28;20016;-78
2021/06/02 01:36:51;;;;;;;9.63;7.00;;;22.10;56.60;;;;;;5091795;28;20058;-77
2021/06/02 01:40:00;;;;;;;13.75;8.02;;;22.10;58.60;;;;;;5086667;28;20024;-78
2021/06/02 01:42:54;;;;;;;8.65;7.05;;;22.10;60.10;;;;;;5086321;28;20040;-79
2021/06/02 01:45:51;;;;;;;10.35;7.25;;;22.10;60.80;;;;;;5099158;28;20020;-78
2021/06/02 01:48:33;;;;;;;12.20;8.70;;;22.00;59.70;;;;;;5099323;28;20028;-78
2021/06/02 01:51:24;;;;;;;14.00;8.30;;;22.00;60.90;;;;;;5099427;28;20020;-80
2021/06/02 01:54:15;;;;;;;11.85;8.35;;;22.00;61.40;;;;;;5086909;28;20030;-78
2021/06/02 01:56:59;;;;;;;10.30;7.53;;;22.00;61.10;;;;;;5099058;28;20031;-78
2021/06/02 01:59:55;;;;;;;9.48;7.22;;;22.00;60.10;;;;;;5086853;28;20544;-78
2021/06/02 02:02:52;;;;;;;9.52;6.93;;;21.90;59.60;;;;;;5099121;28;20028;-77
2021/06/02 02:05:45;;;;;;;9.40;6.75;;;21.90;58.50;;;;;;5099205;28;20444;-78
2021/06/02 02:08:27;;;;;;;;;;;21.90;58.60;;;;;;5099345;28;20032;-78
2021/06/02 02:11:06;;;;;;;11.30;7.90;;;21.90;59.40;;;;;;5098473;28;19960;-78
2021/06/02 02:14:14;;;;;;;9.55;7.85;;;21.90;59.70;;;;;;5098903;28;20021;-78
2021/06/02 02:17:02;;;;;;;11.43;7.93;;;21.90;60.60;;;;;;5098759;28;20087;-78
2021/06/02 02:20:00;;;;;;;10.43;7.72;;;21.90;60.90;;;;;;5098845;28;20027;-78
2021/06/02 02:22:45;;;;;;;13.93;8.65;;;21.80;61.00;;;;;;5068619;28;20200;-77
2021/06/02 02:25:17;;;;;;;13.13;8.50;;;21.80;61.00;;;;;;5090375;28;20054;-77
2021/06/02 02:28:14;;;;;;;11.82;8.10;;;21.80;62.30;;;;;;5098509;28;20031;-78
2021/06/02 02:30:45;;;;;;;9.82;6.93;;;21.80;61.60;;;;;;5098302;28;20024;-77
2021/06/02 02:33:25;;;;;;;12.35;8.18;;;21.80;61.40;;;;;;5098804;28;20051;-78
2021/06/02 02:36:11;;;;;;;11.40;7.97;;;21.80;60.90;;;;;;5085243;28;20028;-77
2021/06/02 02:39:08;;;;;;;12.00;8.15;;;21.80;61.10;;;;;;5098128;28;20105;-78
2021/06/02 02:41:55;;;;;;;10.15;8.15;;;21.70;61.80;;;;;;5098338;28;20020;-77
2021/06/02 02:44:47;;;;;;;11.48;8.10;;;21.70;61.30;;;;;;5098362;28;20019;-78
2021/06/02 02:47:32;;;;;;;;;;;21.70;61.20;;;;;;5085660;28;20063;-77
2021/06/02 02:50:10;;;;;;;12.05;7.60;;;21.70;60.50;;;;;;5098375;28;19995;-79
2021/06/02 02:52:45;;;;;;;10.88;7.90;;;21.70;61.80;;;;;;5098144;28;20024;-79
2021/06/02 02:55:26;;;;;;;13.07;8.35;;;21.70;61.50;;;;;;5097625;28;20020;-78
2021/06/02 02:57:54;;;;;;;11.77;8.95;;;21.70;60.40;;;;;;5096700;28;20032;-78
2021/06/02 03:00:26;;;;;;;13.65;8.75;;;21.70;61.80;;;;;;5086619;28;20076;-78
2021/06/02 03:03:23;;;;;;;12.30;8.15;;;21.70;60.90;;;;;;5097897;28;20107;-79
2021/06/02 03:06:05;;;;;;;12.48;8.45;;;21.70;62.10;;;;;;5097936;28;20122;-78
2021/06/02 03:08:54;;;;;;;10.70;7.70;;;21.60;62.20;;;;;;5096392;28;20032;-78
2021/06/02 03:11:39;;;;;;;10.60;8.20;;;21.60;61.30;;;;;;5097683;28;20032;-78
2021/06/02 03:14:20;;;;;;;10.23;7.72;;;21.60;62.40;;;;;;5097729;28;20454;-78
2021/06/02 03:17:06;;;;;;;12.55;7.93;;;21.50;62.70;;;;;;5097733;28;20487;-78
2021/06/02 03:20:08;;;;;;;12.63;8.02;;;21.50;61.60;;;;;;5085279;28;20024;-78
2021/06/02 03:23:01;;;;;;;12.07;8.48;;;21.50;61.80;;;;;;5092842;28;20025;-79
2021/06/02 03:25:34;;;;;;;12.65;8.27;;;21.50;60.20;;;;;;5091764;28;20512;-78
2021/06/02 03:28:22;;;;;;;11.50;8.13;;;21.40;60.60;;;;;;5097695;28;20035;-77
2021/06/02 03:31:15;;;;;;;13.27;8.07;;;21.40;60.70;;;;;;5097233;28;20018;-78
2021/06/02 03:34:08;;;;;;;10.43;7.85;;;21.40;61.00;;;;;;5097477;28;20024;-78
2021/06/02 03:37:22;;;;;;;12.80;7.70;;;21.40;62.10;;;;;;5097349;28;20056;-78
2021/06/02 03:39:54;;;;;;;13.98;8.13;;;21.40;60.70;;;;;;5094913;28;20036;-78
2021/06/02 03:42:47;;;;;;;13.45;8.45;;;21.30;60.10;;;;;;5084745;28;20502;-78
2021/06/02 03:45:38;;;;;;;11.80;7.45;;;21.30;60.10;;;;;;5097171;28;20110;-78
2021/06/02 03:48:22;;;;;;;9.35;6.50;;;21.30;59.70;;;;;;5097216;28;20434;-79
2021/06/02 03:50:51;;;;;;;12.27;7.95;;;21.30;59.60;;;;;;5097374;28;20024;-79
2021/06/02 03:53:37;;;;;;;10.52;7.32;;;21.30;59.10;;;;;;5097199;28;20024;-79
2021/06/02 03:56:54;;;;;;;10.70;7.30;;;21.30;59.40;;;;;;5095612;28;20474;-78
2021/06/02 03:59:29;;;;;;;11.88;8.90;;;21.30;59.30;;;;;;5076004;28;20067;-78
2021/06/02 04:02:06;;;;;;;14.80;8.50;;;21.30;61.20;;;;;;5097244;28;20103;-79
2021/06/02 04:04:35;;;;;;;14.13;9.00;;;21.20;62.30;;;;;;5097011;28;20382;-79
2021/06/02 04:07:08;;;;;;;12.18;7.72;;;21.20;61.00;;;;;;5097105;28;20039;-78
2021/06/02 04:09:48;;;;;;;13.90;9.45;;;21.20;60.70;;;;;;5096666;28;20024;-78
2021/06/02 04:12:18;;;;;;;15.70;8.98;;;21.20;61.40;;;;;;5096936;28;20103;-78
2021/06/02 04:14:58;;;;;;;13.73;9.82;;;21.20;62.50;;;;;;5097125;28;20529;-78
2021/06/02 04:17:26;;;;;;;13.13;9.23;;;21.10;62.90;;;;;;5096942;28;20028;-77
2021/06/02 04:19:53;;;;;;;12.20;8.75;;;21.10;62.90;;;;;;5095675;28;20029;-77
2021/06/02 04:22:21;;;;;;;15.38;9.77;;;21.10;62.50;;;;;;5094761;28;20020;-77
2021/06/02 04:24:48;;;;;;;14.25;9.15;;;21.00;62.80;;;;;;5085780;28;20105;-78
2021/06/02 04:27:17;;;;;;;16.80;10.32;;;21.00;61.50;;;;;;5096870;28;20032;-78
2021/06/02 04:29:50;;;;;;;12.65;8.02;;;21.00;61.40;;;;;;5097055;28;20021;-79
2021/06/02 04:32:17;;;;;;;15.13;9.68;;;21.00;60.70;;;;;;5096823;28;20048;-79
2021/06/02 04:34:44;;;;;;;15.20;9.93;;;21.00;62.90;;;;;;5097366;28;20388;-79
2021/06/02 04:37:11;;;;;;;12.40;9.15;;;21.00;62.10;;;;;;5100523;28;20048;-78
2021/06/02 04:39:39;;;;;;;13.30;9.40;;;21.00;61.40;;;;;;5100578;28;20035;-77
2021/06/02 04:42:07;;;;;;;11.88;8.73;;;21.00;61.10;;;;;;5100736;28;20032;-77
2021/06/02 04:44:34;;;;;;;13.20;9.25;;;21.00;61.40;;;;;;5100633;28;20020;-78
2021/06/02 04:47:02;;;;;;;14.43;8.50;;;21.00;61.30;;;;;;5100189;28;20028;-78
2021/06/02 04:49:58;;;;;;;13.35;8.27;;;21.00;61.50;;;;;;5099291;28;20036;-78
2021/06/02 04:53:07;;;;;;;12.27;8.32;;;21.00;61.90;;;;;;5089988;28;20021;-78
2021/06/02 04:55:51;;;;;;;12.07;8.48;;;21.00;60.70;;;;;;5088843;28;20020;-78
2021/06/02 04:58:36;;;;;;;13.73;9.30;;;21.00;60.90;;;;;;5095557;28;20028;-78
2021/06/02 05:01:39;;;;;;;13.70;9.68;;;21.00;60.30;;;;;;5094136;28;20028;-78
2021/06/02 05:04:26;;;;;;;11.05;8.18;;;21.00;62.50;;;;;;5100240;28;20032;-78
2021/06/02 05:07:27;;;;;;;15.85;9.32;;;21.00;60.60;;;;;;5089084;28;20024;-76
2021/06/02 05:09:59;;;;;;;14.10;9.23;;;21.00;61.60;;;;;;5095146;28;20077;-77
2021/06/02 05:12:55;;;;;;;13.17;8.80;;;21.00;61.60;;;;;;5099970;28;20017;-81
2021/06/02 05:15:45;;;;;;;16.73;8.88;;;21.00;62.30;;;;;;5099700;28;20013;-78
2021/06/02 05:18:29;;;;;;;14.10;9.07;;;21.00;64.20;;;;;;5088855;28;20039;-73
2021/06/02 05:24:29;;;;;;;17.77;9.50;;;21.10;62.50;;;;;;5086029;28;20044;-74
2021/06/02 05:27:23;;;;;;;14.38;8.73;;;21.10;63.20;;;;;;5099624;28;20948;-75
2021/06/02 05:30:21;;;;;;;17.45;8.43;;;21.10;62.00;;;;;;5099759;28;20489;-74
2021/06/02 05:33:02;;;;;;;14.63;9.27;;;21.10;62.20;;;;;;5085817;28;20418;-73
2021/06/02 05:35:45;;;;;;;14.60;8.75;;;21.10;62.40;;;;;;5099420;28;20059;-71
2021/06/02 05:38:49;;;;;;;13.85;8.65;;;21.10;62.30;;;;;;5099590;28;20538;-72
2021/06/02 05:41:46;;;;;;;15.00;8.43;;;21.10;63.50;;;;;;5091124;28;20035;-70
2021/06/02 05:44:42;;;;;;;16.65;9.25;;;21.10;62.50;;;;;;5087158;28;20052;-73
2021/06/02 05:47:23;;;;;;;16.05;8.75;;;21.10;62.50;;;;;;5085738;28;20032;-73
2021/06/02 05:50:26;;;;;;;13.32;8.38;;;21.10;62.00;;;;;;5099613;28;20019;-68
2021/06/02 05:53:29;;;;;;;14.32;9.00;;;21.10;62.50;;;;;;5099460;28;20028;-67
2021/06/02 05:56:13;;;;;;;;;;;21.10;63.20;;;;;;5099709;28;20021;-66
2021/06/02 05:59:02;;;;;;;14.45;8.98;;;21.10;62.70;;;;;;5079941;28;19965;-70
2021/06/02 06:01:45;;;;;;;14.27;8.20;;;21.10;63.70;;;;;;5096044;28;20100;-70
2021/06/02 06:04:55;;;;;;;15.50;9.10;;;21.10;62.70;;;;;;5098063;28;20027;-70
2021/06/02 06:08:18;;;;;;;23.65;14.73;;;21.10;62.40;;;;;;5056661;28;20060;-70
2021/06/02 06:11:05;;;;;;;15.00;11.38;;;21.10;61.90;;;;;;5093146;28;20047;-69
2021/06/02 06:14:08;;;;;;;14.73;9.05;;;21.20;63.60;;;;;;5097090;28;20012;-70
2021/06/02 06:16:52;;;;;;;17.05;10.52;;;21.30;64.60;;;;;;5097239;28;20032;-70
2021/06/02 06:19:32;;;;;;;19.15;9.90;;;21.30;64.20;;;;;;5094467;28;20058;-70
2021/06/02 06:22:00;;;;;;;13.52;9.07;;;21.40;64.00;;;;;;5096582;28;20028;-70
2021/06/02 06:24:47;;;;;;;14.38;8.73;;;21.40;63.50;;;;;;5085121;28;20035;-70
2021/06/02 06:27:59;;;;;;;15.13;8.73;;;21.40;63.00;;;;;;5098026;28;20028;-70
2021/06/02 06:30:33;;;;;;;16.65;9.23;;;21.50;62.90;;;;;;5055455;28;20028;-70
2021/06/02 06:33:07;;;;;;;14.63;9.13;;;21.50;62.80;;;;;;5092438;28;20383;-70
2021/06/02 06:35:38;;;;;;;15.57;10.85;;;21.50;63.70;;;;;;5096202;28;20111;-70
2021/06/02 06:38:08;;;;;;;17.00;10.27;;;21.50;64.00;;;;;;5091982;28;20087;-70
2021/06/02 06:40:35;;;;;;;19.25;10.98;;;21.50;65.20;;;;;;5095388;28;20028;-70
2021/06/02 06:43:05;;;;;;;18.75;11.43;;;21.50;64.70;;;;;;5092275;28;20020;-70
2021/06/02 06:45:35;;;;;;;18.40;12.18;;;21.40;64.10;;;;;;5096673;28;20059;-70
2021/06/02 06:48:09;;;;;;;21.90;12.70;;;21.40;64.60;;;;;;5098136;28;20016;-70
2021/06/02 06:50:36;;;;;;;21.30;12.40;;;21.40;66.00;;;;;;5098430;28;20496;-69
2021/06/02 06:53:04;;;;;;;23.17;14.30;;;21.30;65.40;;;;;;5098001;28;20066;-70
2021/06/02 06:55:30;;;;;;;20.15;12.48;;;21.20;68.50;;;;;;5088332;28;20046;-70
2021/06/02 06:57:57;;;;;;;20.63;12.80;;;21.20;66.80;;;;;;5095465;28;20020;-70
2021/06/02 07:00:25;;;;;;;20.17;13.57;;;21.30;67.10;;;;;;5088527;28;20031;-70
2021/06/02 07:02:51;;;;;;;18.60;13.05;;;21.50;66.70;;;;;;5097989;28;20028;-70
2021/06/02 07:05:19;;;;;;;15.65;12.27;;;21.70;66.00;;;;;;5098130;28;20032;-70
2021/06/02 07:07:46;;;;;;;17.10;12.38;;;21.80;66.10;;;;;;5094993;28;20024;-70
2021/06/02 07:10:14;;;;;;;18.65;12.60;;;22.10;66.10;;;;;;5097753;28;20024;-70
2021/06/02 07:12:42;;;;;;;18.48;13.10;;;22.30;65.50;;;;;;5097986;28;20093;-70
2021/06/02 07:15:10;;;;;;;19.27;12.75;;;22.50;65.10;;;;;;5097864;28;20020;-70
2021/06/02 07:17:42;;;;;;;18.25;12.98;;;22.60;65.00;;;;;;5097910;28;20551;-70
2021/06/02 07:20:10;;;;;;;17.17;12.15;;;22.60;64.60;;;;;;5097965;28;20103;-70
2021/06/02 07:22:44;;;;;;;15.73;12.32;;;22.60;64.00;;;;;;5093328;28;20025;-71
2021/06/02 07:25:13;;;;;;;18.08;12.32;;;22.60;63.60;;;;;;5081297;28;20027;-71
2021/06/02 07:27:39;;;;;;;16.70;12.35;;;22.70;63.70;;;;;;5091437;28;20025;-70
2021/06/02 07:30:05;;;;;;;16.33;12.57;;;22.70;63.10;;;;;;5097551;28;20508;-70
2021/06/02 07:32:31;;;;;;;18.63;13.90;;;22.70;64.10;;;;;;5092845;28;20015;-70
2021/06/02 07:34:57;;;;;;;17.98;12.43;;;22.60;63.70;;;;;;5097613;28;20398;-71
2021/06/02 07:37:23;;;;;;;20.02;13.10;;;22.50;63.80;;;;;;5096015;28;20054;-70
2021/06/02 07:39:49;;;;;;;17.92;12.68;;;22.50;62.90;;;;;;5096456;28;20462;-70
2021/06/02 07:42:14;;;;;;;20.73;13.05;;;22.40;63.50;;;;;;5096986;28;20107;-71
2021/06/02 07:44:41;;;;;;;17.50;12.77;;;22.40;63.90;;;;;;5097466;28;20024;-71
2021/06/02 07:47:06;;;;;;;16.15;12.25;;;22.40;63.10;;;;;;5097301;28;20028;-71
2021/06/02 07:49:34;;;;;;;21.60;14.02;;;22.40;63.80;;;;;;5097550;28;20027;-71
2021/06/02 07:52:00;;;;;;;15.82;12.20;;;22.30;64.10;;;;;;5097345;28;20032;-71
2021/06/02 07:54:27;;;;;;;18.95;13.10;;;22.30;63.30;;;;;;5096210;28;20020;-73
2021/06/02 07:56:53;;;;;;;19.95;12.38;;;22.20;63.50;;;;;;5097504;28;20121;-72
2021/06/02 07:59:19;;;;;;;17.75;11.80;;;22.10;62.80;;;;;;5085086;28;20035;-72
2021/06/02 08:01:46;;;;;;;16.85;12.20;;;22.10;63.80;;;;;;5097384;28;20024;-72
2021/06/02 08:04:13;;;;;;;19.70;12.75;;;22.00;63.50;;;;;;5097252;28;20517;-72
2021/06/02 08:06:39;;;;;;;18.05;13.70;;;22.00;62.90;;;;;;5097392;28;20372;-72
2021/06/02 08:09:06;;;;;;;23.80;13.93;;;22.00;64.50;;;;;;5098014;28;20016;-72
2021/06/02 08:11:32;;;;;;;21.25;14.25;;;21.90;63.60;;;;;;5101524;28;20127;-72
2021/06/02 08:13:59;;;;;;;21.90;13.57;;;21.90;64.20;;;;;;5101455;28;20070;-72
2021/06/02 08:16:24;;;;;;;18.63;13.40;;;21.80;63.20;;;;;;5101250;28;20028;-72
2021/06/02 08:18:51;;;;;;;20.45;14.57;;;21.80;63.60;;;;;;5101204;28;20092;-72
2021/06/02 08:21:17;;;;;;;22.35;13.30;;;21.80;63.80;;;;;;5101067;28;20024;-72
2021/06/02 08:23:43;;;;;;;21.88;14.27;;;21.80;63.80;;;;;;5086571;28;20142;-72
2021/06/02 08:26:09;;;;;;;20.50;14.55;;;21.70;64.10;;;;;;5101214;28;20016;-72
2021/06/02 08:28:35;;;;;;;22.70;14.38;;;21.80;65.20;;;;;;5101112;28;20020;-72
2021/06/02 08:31:02;;;;;;;19.77;14.38;;;21.70;64.40;;;;;;5101101;28;20024;-72
2021/06/02 08:33:28;;;;;;;24.58;13.82;;;21.70;64.10;;;;;;5101211;28;20371;-72
2021/06/02 08:35:53;;;;;;;23.05;15.45;;;21.70;64.10;;;;;;5100970;28;20043;-72
2021/06/02 08:38:19;;;;;;;22.05;13.82;;;21.70;65.20;;;;;;5100760;28;20056;-72
2021/06/02 08:40:45;;;;;;;26.08;14.88;;;21.60;64.20;;;;;;5100983;28;20099;-72
2021/06/02 08:43:12;;;;;;;17.80;13.63;;;21.60;65.30;;;;;;5100933;28;20024;-72
2021/06/02 08:45:38;;;;;;;21.77;14.00;;;21.60;64.20;;;;;;5100662;28;20024;-72
2021/06/02 08:48:05;;;;;;;21.20;14.25;;;21.60;64.60;;;;;;5100661;28;20099;-72
2021/06/02 08:50:31;;;;;;;20.92;14.45;;;21.50;63.70;;;;;;5100826;28;20790;-72
2021/06/02 08:53:00;;;;;;;22.90;15.60;;;21.50;65.50;;;;;;5100728;28;20024;-72
2021/06/02 08:55:27;;;;;;;19.75;13.73;;;21.50;64.40;;;;;;5100747;28;20161;-72
2021/06/02 08:57:53;;;;;;;19.65;13.98;;;21.50;64.50;;;;;;5098958;28;20031;-72
2021/06/02 09:00:21;;;;;;;19.45;13.93;;;21.50;65.50;;;;;;5089183;28;20020;-72
2021/06/02 09:02:55;;;;;;;20.10;14.63;;;21.50;64.70;;;;;;5100392;28;20024;-72
2021/06/02 09:05:22;;;;;;;20.25;14.13;;;21.50;64.60;;;;;;5100386;28;20525;-72
2021/06/02 09:07:52;;;;;;;22.45;14.60;;;21.50;64.30;;;;;;5100424;28;20056;-72
2021/06/02 09:10:19;;;;;;;24.27;15.80;;;21.60;64.00;;;;;;5098710;28;20024;-72
2021/06/02 09:12:46;;;;;;;20.85;14.35;;;21.60;65.00;;;;;;5100188;28;20378;-72
2021/06/02 09:15:19;;;;;;;23.33;15.30;;;21.50;64.90;;;;;;5100265;28;20035;-72
2021/06/02 09:17:48;;;;;;;27.23;15.77;;;21.50;64.30;;;;;;5100126;28;20028;-72
2021/06/02 09:20:42;;;;;;;24.88;16.00;;;21.40;67.50;;;;;;5099806;28;20055;-72
2021/06/02 09:23:30;;;;;;;22.67;14.95;;;21.40;64.70;;;;;;5081464;28;20025;-72
2021/06/02 09:26:16;;;;;;;21.67;14.65;;;21.30;64.70;;;;;;5098561;28;20035;-72
2021/06/02 09:28:51;;;;;;;23.45;15.05;;;21.30;65.70;;;;;;5099709;28;20032;-71
2021/06/02 09:31:26;;;;;;;23.42;15.48;;;21.30;65.80;;;;;;5098844;28;20529;-71
2021/06/02 09:33:54;;;;;;;23.52;15.20;;;21.30;65.40;;;;;;5096890;28;20115;-73
2021/06/02 09:36:38;;;;;;;22.17;15.38;;;21.30;65.40;;;;;;5098334;28;20496;-79
2021/06/02 09:39:09;;;;;;;21.88;14.52;;;21.30;65.30;;;;;;5083773;28;20032;-74
2021/06/02 09:41:47;;;;;;;19.45;12.93;;;21.30;66.40;;;;;;5099684;28;20020;-74
2021/06/02 09:44:20;;;;;;;20.50;13.07;;;21.30;65.80;;;;;;5099515;28;20024;-72
2021/06/02 09:47:12;;;;;;;20.85;13.27;;;21.30;66.80;;;;;;5099803;28;20379;-76
2021/06/02 09:49:54;;;;;;;27.17;17.70;;;21.20;67.10;;;;;;5086155;28;20044;-76
2021/06/02 09:52:46;;;;;;;33.80;23.55;;;21.20;66.90;;;;;;5098139;28;20471;-75
2021/06/02 09:55:19;;;;;;;19.23;12.98;;;21.20;66.00;;;;;;5091679;28;20032;-76
2021/06/02 09:57:46;;;;;;;16.35;11.20;;;21.10;66.60;;;;;;5096427;28;20028;-76
2021/06/02 10:00:15;;;;;;;17.83;9.95;;;21.20;66.40;;;;;;5094047;28;20102;-76
2021/06/02 10:02:41;;;;;;;16.85;9.75;;;21.20;66.30;;;;;;5099320;28;20063;-76
2021/06/02 10:05:12;;;;;;;13.70;8.60;;;21.20;65.60;;;;;;5099127;28;20088;-75
2021/06/02 10:07:45;;;;;;;13.23;8.70;;;21.20;66.80;;;;;;5099341;28;20042;-76
2021/06/02 10:10:22;;;;;;;11.50;7.90;;;21.30;66.50;;;;;;5098766;28;20020;-76
2021/06/02 10:12:59;;;;;;;13.63;7.68;;;21.30;66.20;;;;;;5098891;28;20028;-76
2021/06/02 10:15:39;;;;;;;11.38;7.70;;;21.30;67.50;;;;;;5099189;28;20025;-76
2021/06/02 10:18:23;;;;;;;11.90;6.78;;;21.30;67.20;;;;;;5098772;28;20028;-75
2021/06/02 10:21:11;;;;;;;11.27;7.50;;;21.30;66.90;;;;;;5098873;28;20028;-75
2021/06/02 10:23:45;;;;;;;11.55;7.05;;;21.30;67.40;;;;;;5078452;28;20111;-75
2021/06/02 10:26:14;;;;;;;10.60;7.40;;;21.20;66.70;;;;;;5086107;28;20089;-74
2021/06/02 10:28:42;;;;;;;9.45;6.75;;;21.20;67.40;;;;;;5098575;28;20020;-74
2021/06/02 10:31:09;;;;;;;10.40;6.80;;;21.20;67.00;;;;;;5098691;28;20030;-75
2021/06/02 10:33:36;;;;;;;10.57;6.57;;;21.20;66.80;;;;;;5097220;28;20077;-75
2021/06/02 10:36:05;;;;;;;12.13;8.18;;;21.10;66.80;;;;;;5098557;28;20126;-74
2021/06/02 10:38:39;;;;;;;12.77;8.82;;;21.10;66.80;;;;;;5085573;28;20107;-76
2021/06/02 10:41:05;;;;;;;13.23;9.15;;;21.00;66.90;;;;;;5091795;28;20035;-76
2021/06/02 10:43:42;;;;;;;18.90;11.05;;;21.00;67.40;;;;;;5098130;28;20024;-74
2021/06/02 10:46:17;;;;;;;18.92;11.63;;;21.00;67.10;;;;;;5097992;28;20031;-75
2021/06/02 10:48:48;;;;;;;22.55;13.15;;;21.00;67.90;;;;;;5097994;28;20028;-74
2021/06/02 10:51:30;;;;;;;18.42;12.70;;;20.90;68.30;;;;;;5098177;28;20044;-72
2021/06/02 10:54:16;;;;;;;18.63;11.73;;;20.90;67.10;;;;;;5097062;28;20020;-74
2021/06/02 10:57:02;;;;;;;19.33;13.05;;;20.90;67.40;;;;;;5095983;28;20085;-81
2021/06/02 10:59:28;;;;;;;22.33;14.93;;;20.90;67.50;;;;;;5088024;28;20111;-76
2021/06/02 11:02:17;;;;;;;23.30;15.38;;;20.80;67.50;;;;;;5097779;28;20042;-75
2021/06/02 11:05:04;;;;;;;21.38;14.15;;;20.80;67.30;;;;;;5097678;28;20028;-78
2021/06/02 11:07:33;;;;;;;21.02;13.95;;;20.80;66.80;;;;;;5083669;28;20073;-78
2021/06/02 11:10:00;;;;;;;20.42;14.30;;;20.90;66.60;;;;;;5094215;28;20466;-77
2021/06/02 11:12:49;;;;;;;21.95;13.95;;;21.00;66.40;;;;;;5095181;28;20065;-77
2021/06/02 11:15:42;;;;;;;22.88;14.75;;;21.10;66.60;;;;;;5097136;28;20027;-75
2021/06/02 11:18:15;;;;;;;21.67;14.75;;;21.10;66.10;;;;;;5097860;28;20038;-78
2021/06/02 11:20:47;;;;;;;24.45;14.38;;;21.10;65.80;;;;;;5084590;28;20028;-78
2021/06/02 11:23:16;;;;;;;23.58;15.10;;;21.10;66.00;;;;;;5096115;28;20024;-79
2021/06/02 11:25:42;;;;;;;22.08;13.75;;;21.00;66.00;;;;;;5097649;28;20035;-79
2021/06/02 11:28:29;;;;;;;19.80;13.00;;;21.00;65.10;;;;;;5097676;28;20027;-80
2021/06/02 11:31:40;;;;;;;20.83;12.77;;;21.00;65.40;;;;;;5097366;28;20024;-79
2021/06/02 11:34:31;;;;;;;22.38;13.70;;;21.10;65.40;;;;;;5086912;28;20039;-79
2021/06/02 11:37:05;;;;;;;20.70;14.10;;;21.10;64.60;;;;;;5084538;28;20098;-81
2021/06/02 11:39:32;;;;;;;22.80;14.00;;;21.00;64.90;;;;;;5097540;28;20032;-78
2021/06/02 11:41:59;;;;;;;19.80;13.68;;;21.00;64.20;;;;;;5097407;28;20028;-79
2021/06/02 11:44:28;;;;;;;23.13;14.20;;;20.90;64.00;;;;;;5097406;28;20142;-78
2021/06/02 11:46:55;;;;;;;22.38;12.98;;;20.90;64.20;;;;;;5087076;28;20020;-79
2021/06/02 11:49:29;;;;;;;18.15;13.63;;;20.90;64.10;;;;;;5094223;28;20017;-79
2021/06/02 11:52:07;;;;;;;26.08;14.57;;;20.90;64.30;;;;;;5097272;28;20024;-80
2021/06/02 11:54:52;;;;;;;23.15;14.27;;;20.90;64.40;;;;;;5096583;28;20016;-80
2021/06/02 11:57:21;;;;;;;83.72;52.72;;;20.90;64.00;;;;;;5096899;28;20035;-77
2021/06/02 11:59:47;;;;;;;42.50;30.10;;;20.90;64.30;;;;;;5089854;28;20046;-72
2021/06/02 12:02:13;;;;;;;19.83;13.70;;;20.90;63.80;;;;;;5093639;28;20024;-71
2021/06/02 12:04:39;;;;;;;20.27;13.30;;;20.90;64.00;;;;;;5095475;28;20046;-71
2021/06/02 12:07:22;;;;;;;19.27;13.38;;;20.90;64.00;;;;;;5096340;28;20471;-74
2021/06/02 12:09:53;;;;;;;24.73;13.45;;;20.90;64.70;;;;;;5096451;28;20452;-76
2021/06/02 12:12:19;;;;;;;23.70;13.52;;;20.90;64.50;;;;;;5097519;28;20028;-75
2021/06/02 12:14:56;;;;;;;21.27;13.45;;;20.90;64.10;;;;;;5097231;28;20483;-74
2021/06/02 12:17:30;;;;;;;20.13;12.35;;;20.90;63.90;;;;;;5096898;28;20032;-75
2021/06/02 12:19:57;;;;;;;21.20;12.95;;;21.00;64.70;;;;;;5097029;28;20028;-74
2021/06/02 12:22:24;;;;;;;17.45;11.77;;;21.00;63.70;;;;;;5096848;28;20394;-74
2021/06/02 12:25:07;;;;;;;18.05;11.60;;;21.20;63.50;;;;;;5097005;28;20081;-76
2021/06/02 12:27:41;;;;;;;18.75;12.05;;;21.20;63.30;;;;;;5095937;28;20028;-83
2021/06/02 12:30:11;;;;;;;19.00;12.13;;;21.20;63.20;;;;;;5095383;28;20025;-74
2021/06/02 12:32:43;;;;;;;19.63;12.60;;;21.20;63.40;;;;;;5092462;28;20031;-76
2021/06/02 12:35:40;;;;;;;18.25;11.32;;;21.20;62.60;;;;;;5094992;28;20023;-77
2021/06/02 12:38:16;;;;;;;18.65;11.70;;;21.10;62.70;;;;;;5095082;28;20185;-78
2021/06/02 12:40:50;;;;;;;17.27;11.30;;;21.10;62.50;;;;;;5093465;28;20095;-79
2021/06/02 12:43:23;;;;;;;18.98;12.15;;;21.00;62.60;;;;;;5094131;28;20031;-78
2021/06/02 12:45:51;;;;;;;20.30;12.38;;;21.00;63.10;;;;;;5094612;28;20052;-77
2021/06/02 12:48:30;;;;;;;18.88;12.52;;;21.00;63.10;;;;;;5095741;28;20058;-76
2021/06/02 12:50:57;;;;;;;19.05;12.52;;;21.00;62.90;;;;;;5094531;28;20099;-79
2021/06/02 12:53:22;;;;;;;17.23;11.45;;;21.10;63.10;;;;;;5096421;28;20024;-74
2021/06/02 12:55:50;;;;;;;16.95;11.10;;;21.10;63.00;;;;;;5094840;28;20088;-74
2021/06/02 12:58:20;;;;;;;16.15;10.73;;;21.10;62.80;;;;;;5097747;28;20020;-75
2021/06/02 13:00:50;;;;;;;16.10;10.82;;;21.10;62.50;;;;;;5099813;28;20024;-73
2021/06/02 13:03:21;;;;;;;16.00;10.80;;;21.20;62.70;;;;;;5098064;28;20035;-75
2021/06/02 13:05:49;;;;;;;18.27;10.27;;;21.30;62.50;;;;;;5100479;28;20108;-74
2021/06/02 13:08:15;;;;;;;14.77;10.52;;;21.40;62.30;;;;;;5099382;28;20032;-72
2021/06/02 13:10:46;;;;;;;16.48;10.45;;;21.40;62.10;;;;;;5099712;28;20020;-71
2021/06/02 13:13:13;;;;;;;14.77;10.55;;;21.50;62.70;;;;;;5100250;28;20054;-71
2021/06/02 13:15:40;;;;;;;17.65;11.10;;;21.60;62.20;;;;;;5098908;28;20154;-71
2021/06/02 13:18:18;;;;;;;12.70;9.68;;;21.70;62.60;;;;;;5099820;28;20063;-73
2021/06/02 13:20:44;;;;;;;15.40;9.27;;;21.90;61.40;;;;;;5098769;28;20027;-72
2021/06/02 13:23:36;;;;;;;14.70;8.88;;;21.90;60.30;;;;;;5098281;28;20486;-71